Time;durP1;ratioP1;P1;durP2;ratioP2;P2;SDS_P1;SDS_P2;PMS_P1;PMS_P2;Temp;Humidity;BMP_temperature;BMP_pressure;BME280_temperature;BME280_humidity;BME280_pressure;Samples;Min_cycle;Max_cycle;Signal;HPM_P1;HPM_P2
2023/01/18 00:01:50;;;;;;;;;;;;;;;2.92;100.00;96980.00;5053340;28;19921;-78
2023/01/18 00:04:16;;;;;;;;;;;;;;;2.90;100.00;96969.72;5036207;28;19917;-79
2023/01/18 00:06:41;;;;;;;;;;;;;;;2.84;100.00;96984.19;5057059;28;19917;-79
2023/01/18 00:09:07;;;;;;;;;;;;;;;2.82;100.00;96990.56;5050874;28;20465;-79
2023/01/18 00:11:32;;;;;;;;;;;;;;;2.75;100.00;96989.56;5052467;28;19916;-78
2023/01/18 00:13:57;;;;;;;;;;;;;;;2.74;100.00;96980.91;5040024;28;19917;-79
2023/01/18 00:16:24;;;;;;;;;;;;;;;2.71;100.00;96986.41;5049744;28;19920;-78
2023/01/18 00:18:51;;;;;;;;;;;;;;;2.72;100.00;96985.47;5051345;28;19977;-79
2023/01/18 00:21:16;;;;;;;;;;;;;;;2.75;100.00;96998.19;5052912;28;20357;-78
2023/01/18 00:23:42;;;;;;;;;;;;;;;2.74;100.00;96993.94;5059308;28;19923;-79
2023/01/18 00:26:08;;;;;;;;;;;;;;;2.71;100.00;96991.63;5043645;28;20012;-78
2023/01/18 00:28:34;;;;;;;;;;;;;;;2.71;100.00;96989.03;5054956;28;20383;-77
2023/01/18 00:30:59;;;;;;;;;;;;;;;2.62;100.00;96989.97;5048482;28;19917;-78
2023/01/18 00:33:25;;;;;;;;;;;;;;;2.62;100.00;96989.97;5053731;28;19917;-78
2023/01/18 00:35:57;;;;;;;;;;;;;;;2.64;100.00;96985.44;5049733;28;19921;-77
2023/01/18 00:38:23;;;;;;;;;;;;;;;2.63;100.00;96989.00;5055056;28;20085;-78
2023/01/18 00:40:48;;;;;;;;;;;;;;;2.58;100.00;96993.88;5052092;28;20380;-80
2023/01/18 00:45:58;;;;;;;;;;;;;;;2.56;100.00;96993.19;5055096;28;19917;-78
2023/01/18 00:48:23;;;;;;;;;;;;;;;2.56;100.00;96993.19;5053274;28;19932;-79
2023/01/18 00:50:49;;;;;;;;;;;;;;;2.56;100.00;96995.81;5051146;28;19917;-79
2023/01/18 00:53:14;;;;;;;;;;;;;;;2.60;100.00;96997.13;5050692;28;19921;-81
2023/01/18 00:55:39;;;;;;;;;;;;;;;2.58;100.00;96999.06;5053400;28;19938;-79
2023/01/18 00:58:05;;;;;;;;;;;;;;;2.58;100.00;96991.28;5060613;28;19966;-79
2023/01/18 01:00:31;;;;;;;;;;;;;;;2.56;100.00;96990.59;5050519;28;19927;-78
2023/01/18 01:02:57;;;;;;;;;;;;;;;2.56;100.00;96992.38;5049821;28;19970;-78
2023/01/18 01:08:15;;;;;;;;;;;;;;;2.59;100.00;96995.50;5048547;28;20429;-80
2023/01/18 01:10:45;;;;;;;;;;;;;;;2.59;100.00;96995.50;5052570;28;19921;-79
2023/01/18 01:26:50;;;;;;;;;;;;;;;2.53;100.00;97021.34;5051683;28;19935;-78
2023/01/18 01:29:16;;;;;;;;;;;;;;;2.42;100.00;97019.78;5056006;28;19916;-79
2023/01/18 01:31:41;;;;;;;;;;;;;;;2.42;100.00;97025.00;5049692;28;19940;-79
2023/01/18 01:34:07;;;;;;;;;;;;;;;2.41;100.00;97028.59;5054511;28;19917;-79
2023/01/18 01:36:32;;;;;;;;;;;;;;;2.42;100.00;97025.81;5054308;28;19917;-80
2023/01/18 01:38:58;;;;;;;;;;;;;;;2.43;100.00;97021.44;5052939;28;19935;-77
2023/01/18 01:41:31;;;;;;;;;;;;;;;2.45;100.00;97027.31;5052024;28;20004;-76
2023/01/18 01:44:28;;;;;;;;;;;;;;;2.46;100.00;97031.53;5055670;28;20019;-78
2023/01/18 01:46:59;;;;;;;;;;;;;;;2.42;100.00;97040.59;5051791;28;19916;-78
2023/01/18 01:49:31;;;;;;;;;;;;;;;2.32;100.00;97047.72;5053507;28;19978;-78
2023/01/18 01:51:57;;;;;;;;;;;;;;;2.18;100.00;97043.84;5049789;28;20402;-78
2023/01/18 01:54:33;;;;;;;;;;;;;;;2.18;100.00;97053.47;5049054;28;19913;-78
2023/01/18 01:57:04;;;;;;;;;;;;;;;2.20;100.00;97057.53;5043729;28;19924;-78
2023/01/18 01:59:37;;;;;;;;;;;;;;;2.25;100.00;97067.50;5037102;28;19921;-79
2023/01/18 02:02:03;;;;;;;;;;;;;;;2.13;100.00;97066.91;5046175;28;19921;-78
2023/01/18 02:04:29;;;;;;;;;;;;;;;2.10;100.00;97061.22;5035989;28;19948;-77
2023/01/18 02:06:54;;;;;;;;;;;;;;;2.12;100.00;97064.50;5049590;28;19925;-79
2023/01/18 02:09:22;;;;;;;;;;;;;;;2.17;100.00;97064.84;5046099;28;19974;-79
2023/01/18 02:11:51;;;;;;;;;;;;;;;2.22;100.00;97054.78;5051352;28;19963;-79
2023/01/18 02:14:18;;;;;;;;;;;;;;;2.26;100.00;97056.13;5048824;28;19916;-80
2023/01/18 02:17:03;;;;;;;;;;;;;;;2.22;100.00;97057.41;5032727;28;19983;-78
2023/01/18 02:19:48;;;;;;;;;;;;;;;2.19;100.00;97060.28;5054349;28;19920;-79
2023/01/18 02:22:24;;;;;;;;;;;;;;;2.22;100.00;97054.78;5047183;28;20038;-79
2023/01/18 02:25:08;;;;;;;;;;;;;;;2.22;100.00;97068.63;5050596;28;19916;-79
2023/01/18 02:27:54;;;;;;;;;;;;;;;2.27;100.00;97069.00;5055194;28;19959;-78
2023/01/18 02:30:39;;;;;;;;;;;;;;;2.25;100.00;97072.69;5036971;28;19944;-79
2023/01/18 02:33:14;;;;;;;;;;;;;;;2.26;100.00;97069.13;5045802;28;19952;-79
2023/01/18 02:35:45;;;;;;;;;;;;;;;2.17;100.00;97070.06;5046827;28;19920;-79
2023/01/18 02:38:18;;;;;;;;;;;;;;;2.14;100.00;97072.94;5045553;28;19956;-77
2023/01/18 02:40:43;;;;;;;;;;;;;;;1.99;100.00;97070.88;5042939;28;19913;-78
2023/01/18 02:48:41;;;;;;;;;;;;;;;1.99;100.00;97068.28;5045618;28;19920;-78
2023/01/18 02:51:07;;;;;;;;;;;;;;;2.02;100.00;97074.97;5032655;28;19982;-79
2023/01/18 02:53:35;;;;;;;;;;;;;;;2.04;100.00;97076.44;5049561;28;20376;-80
2023/01/18 02:56:06;;;;;;;;;;;;;;;2.08;100.00;97078.75;5045168;28;20015;-79
2023/01/18 02:58:33;;;;;;;;;;;;;;;2.11;100.00;97078.47;5040228;28;19920;-77
2023/01/18 03:01:08;;;;;;;;;;;;;;;2.13;100.00;97081.72;5045193;28;20012;-78
2023/01/18 03:03:34;;;;;;;;;;;;;;;2.14;100.00;97078.97;5042092;28;19916;-78
2023/01/18 03:06:00;;;;;;;;;;;;;;;2.13;100.00;97076.50;5035883;28;19978;-77
2023/01/18 03:08:32;;;;;;;;;;;;;;;2.13;100.00;97076.50;5047636;28;20376;-76
2023/01/18 03:11:08;;;;;;;;;;;;;;;2.06;100.00;97084.91;5049682;28;20007;-77
2023/01/18 03:13:33;;;;;;;;;;;;;;;2.08;100.00;97089.16;5032927;28;19971;-79
2023/01/18 03:16:11;;;;;;;;;;;;;;;2.01;100.00;97088.91;5049674;28;19917;-80
2023/01/18 03:18:37;;;;;;;;;;;;;;;2.00;100.00;97088.09;4995302;28;19918;-78
2023/01/18 03:21:04;;;;;;;;;;;;;;;1.97;100.00;97088.41;5000607;28;20266;-78
2023/01/18 03:23:37;;;;;;;;;;;;;;;1.95;100.00;97086.91;5003046;28;19917;-78
2023/01/18 03:26:22;;;;;;;;;;;;;;;1.88;100.00;97097.13;5000724;28;19917;-78
2023/01/18 03:34:46;;;;;;;;;;;;;;;1.94;100.00;97093.94;4993951;28;19949;-79
2023/01/18 03:37:15;;;;;;;;;;;;;;;1.95;100.00;97100.75;4994133;28;19948;-79
2023/01/18 03:39:43;;;;;;;;;;;;;;;1.97;100.00;97093.63;5005802;28;19921;-77
2023/01/18 03:42:15;;;;;;;;;;;;;;;2.02;100.00;97091.38;5007843;28;20029;-78
2023/01/18 03:44:45;;;;;;;;;;;;;;;2.04;100.00;97099.03;5005040;28;19925;-80
2023/01/18 03:47:10;;;;;;;;;;;;;;;2.04;100.00;97105.06;5004486;28;19922;-78
2023/01/18 03:49:36;;;;;;;;;;;;;;;2.10;100.00;97108.03;4996565;28;19947;-79
2023/01/18 03:52:36;;;;;;;;;;;;;;;2.12;100.00;97111.31;5004264;28;19917;-77
2023/01/18 03:55:22;;;;;;;;;;;;;;;2.16;100.00;97108.25;4970302;28;20012;-78
2023/01/18 03:57:54;;;;;;;;;;;;;;;2.08;100.00;97117.75;4998890;28;19917;-79
2023/01/18 04:00:19;;;;;;;;;;;;;;;1.96;100.00;97128.38;5008522;28;19968;-78
2023/01/18 04:02:46;;;;;;;;;;;;;;;1.90;100.00;97120.34;5005117;28;20416;-79
2023/01/18 04:05:12;;;;;;;;;;;;;;;1.89;100.00;97122.13;5006810;28;19917;-77
2023/01/18 04:07:38;;;;;;;;;;;;;;;1.92;100.00;97127.06;5005014;28;20361;-78
2023/01/18 04:10:03;;;;;;;;;;;;;;;1.93;100.00;97133.09;5003187;28;19917;-80
2023/01/18 04:12:30;;;;;;;;;;;;;;;1.94;100.00;97138.16;5005244;28;19941;-79
2023/01/18 04:14:55;;;;;;;;;;;;;;;1.92;100.00;97139.25;5011464;28;20396;-78
2023/01/18 04:17:21;;;;;;;;;;;;;;;1.93;100.00;97146.91;5027629;28;19917;-79
2023/01/18 04:19:46;;;;;;;;;;;;;;;1.98;100.00;97152.47;5052053;28;19917;-79
2023/01/18 04:22:12;;;;;;;;;;;;;;;2.03;100.00;97149.44;5046214;28;19936;-78
2023/01/18 04:24:38;;;;;;;;;;;;;;;2.04;100.00;97157.09;5054726;28;19916;-79
2023/01/18 04:27:03;;;;;;;;;;;;;;;2.08;100.00;97149.78;5058646;28;19923;-78
2023/01/18 04:29:29;;;;;;;;;;;;;;;2.13;100.00;97154.53;5059673;28;19916;-79
2023/01/18 04:31:54;;;;;;;;;;;;;;;2.16;100.00;97160.28;5064529;28;20281;-78
2023/01/18 04:34:22;;;;;;;;;;;;;;;2.14;100.00;97161.38;5059360;28;19928;-77
2023/01/18 04:36:49;;;;;;;;;;;;;;;2.12;100.00;97164.13;5058641;28;19924;-78
2023/01/18 04:39:14;;;;;;;;;;;;;;;2.13;100.00;97162.34;5059336;28;19917;-78
2023/01/18 04:41:40;;;;;;;;;;;;;;;2.10;100.00;97160.88;5052634;28;20016;-78
2023/01/18 04:44:05;;;;;;;;;;;;;;;2.11;100.00;97146.09;5057827;28;19917;-78
2023/01/18 04:46:31;;;;;;;;;;;;;;;2.08;100.00;97143.78;5063767;28;19925;-77
2023/01/18 04:48:57;;;;;;;;;;;;;;;2.10;100.00;97154.84;5059011;28;19920;-78
2023/01/18 04:51:26;;;;;;;;;;;;;;;2.11;100.00;97156.50;5057733;28;19970;-80
2023/01/18 04:53:51;;;;;;;;;;;;;;;2.11;100.00;97156.50;5058098;28;19920;-78
2023/01/18 04:56:17;;;;;;;;;;;;;;;2.10;100.00;97154.84;5054568;28;19924;-78
2023/01/18 04:58:42;;;;;;;;;;;;;;;2.08;100.00;97156.78;5055935;28;19927;-79
2023/01/18 05:01:10;;;;;;;;;;;;;;;2.01;100.00;97162.56;5061954;28;20007;-79
2023/01/18 05:03:37;;;;;;;;;;;;;;;2.01;100.00;97162.56;5061541;28;19994;-79
2023/01/18 05:06:04;;;;;;;;;;;;;;;2.00;100.00;97163.53;5062403;28;19951;-78
2023/01/18 05:08:29;;;;;;;;;;;;;;;2.03;100.00;97171.06;5052455;28;19948;-79
2023/01/18 05:10:59;;;;;;;;;;;;;;;1.99;100.00;97174.09;5044248;28;20013;-79
2023/01/18 05:13:24;;;;;;;;;;;;;;;1.97;100.00;97176.03;5045224;28;20257;-78
2023/01/18 05:15:49;;;;;;;;;;;;;;;1.93;100.00;97180.72;5051803;28;20288;-79
2023/01/18 05:18:15;;;;;;;;;;;;;;;1.92;100.00;97178.25;5044821;28;20011;-78
2023/01/18 05:20:40;;;;;;;;;;;;;;;1.92;100.00;97184.28;5052468;28;19928;-79
2023/01/18 05:23:09;;;;;;;;;;;;;;;1.92;100.00;97189.47;5052329;28;19936;-79
2023/01/18 05:25:35;;;;;;;;;;;;;;;1.90;100.00;97194.00;5051183;28;19923;-78
2023/01/18 05:28:00;;;;;;;;;;;;;;;1.88;100.00;97193.34;5049449;28;19921;-78
2023/01/18 05:30:26;;;;;;;;;;;;;;;1.82;100.00;97193.94;5052937;28;20016;-77
2023/01/18 05:32:51;;;;;;;;;;;;;;;1.77;100.00;97200.53;5048948;28;19916;-77
2023/01/18 05:35:16;;;;;;;;;;;;;;;1.75;100.00;97208.47;5050770;28;20035;-78
2023/01/18 05:37:42;;;;;;;;;;;;;;;1.75;100.00;97213.66;5048703;28;19948;-78
2023/01/18 05:40:08;;;;;;;;;;;;;;;1.77;100.00;97224.72;5045910;28;19916;-78
2023/01/18 05:42:33;;;;;;;;;;;;;;;1.77;100.00;97224.72;5052708;28;19967;-78
2023/01/18 05:44:58;;;;;;;;;;;;;;;1.81;100.00;97233.06;5054263;28;20008;-77
2023/01/18 05:47:24;;;;;;;;;;;;;;;1.81;100.00;97225.25;5047943;28;19928;-77
2023/01/18 05:49:49;;;;;;;;;;;;;;;1.81;100.00;97233.06;5051252;28;20369;-78
2023/01/18 05:52:15;;;;;;;;;;;;;;;1.70;100.00;97236.69;5051481;28;20399;-77
2023/01/18 05:54:41;;;;;;;;;;;;;;;1.54;100.00;97252.03;5049510;28;20280;-79
2023/01/18 05:57:06;;;;;;;;;;;;;;;1.33;100.00;97254.03;5035196;28;19923;-79
2023/01/18 05:59:32;;;;;;;;;;;;;;;1.35;100.00;97252.13;5047821;28;20011;-79
2023/01/18 06:01:57;;;;;;;;;;;;;;;1.41;100.00;97256.78;5033999;28;19980;-79
2023/01/18 06:04:23;;;;;;;;;;;;;;;1.47;100.00;97257.00;5052552;28;19931;-78
2023/01/18 06:06:48;;;;;;;;;;;;;;;1.54;100.00;97267.66;5050129;28;19916;-78
2023/01/18 06:09:13;;;;;;;;;;;;;;;1.60;100.00;97264.47;5048651;28;19923;-77
2023/01/18 06:11:39;;;;;;;;;;;;;;;1.63;100.00;97266.81;5033889;28;20011;-78
2023/01/18 06:14:04;;;;;;;;;;;;;;;1.49;100.00;97269.84;5048097;28;19971;-77
2023/01/18 06:16:30;;;;;;;;;;;;;;;1.42;100.00;97263.56;5022712;28;19921;-77
2023/01/18 06:18:57;;;;;;;;;;;;;;;1.38;100.00;97263.06;5052161;28;19917;-79
2023/01/18 06:21:22;;;;;;;;;;;;;;;1.42;100.00;97268.78;5029242;28;20361;-77
2023/01/18 06:23:48;;;;;;;;;;;;;;;1.43;100.00;97266.03;5050961;28;19999;-78
2023/01/18 06:26:13;;;;;;;;;;;;;;;1.48;100.00;97268.22;5049421;28;19928;-81
2023/01/18 06:28:38;;;;;;;;;;;;;;;1.47;100.00;97266.59;5052493;28;20340;-78
2023/01/18 06:31:07;;;;;;;;;;;;;;;1.52;100.00;97270.41;5041611;28;19920;-76
2023/01/18 06:33:32;;;;;;;;;;;;;;;1.53;100.00;97276.44;5048415;28;20000;-76
2023/01/18 06:36:00;;;;;;;;;;;;;;;1.55;100.00;97271.88;5025450;28;20019;-77
2023/01/18 06:38:25;;;;;;;;;;;;;;;1.57;100.00;97269.97;5046658;28;20495;-77
2023/01/18 06:40:51;;;;;;;;;;;;;;;1.60;100.00;97280.06;5049042;28;20003;-76
2023/01/18 06:43:16;;;;;;;;;;;;;;;1.56;100.00;97286.53;5048249;28;19917;-77
2023/01/18 06:45:42;;;;;;;;;;;;;;;1.37;100.00;97286.56;5048129;28;19917;-75
2023/01/18 06:48:07;;;;;;;;;;;;;;;1.32;100.00;97287.00;5044891;28;19990;-75
2023/01/18 06:50:33;;;;;;;;;;;;;;;1.31;100.00;97292.31;5047670;28;20428;-75
2023/01/18 06:52:58;;;;;;;;;;;;;;;1.32;100.00;97293.97;5038314;28;19928;-76
2023/01/18 06:55:24;;;;;;;;;;;;;;;1.34;100.00;97298.09;5041995;28;19913;-77
2023/01/18 06:57:49;;;;;;;;;;;;;;;1.35;100.00;97298.91;5042590;28;20381;-77
2023/01/18 07:00:16;;;;;;;;;;;;;;;1.31;100.00;97307.91;5046665;28;19929;-79
2023/01/18 07:02:41;;;;;;;;;;;;;;;1.21;100.00;97308.78;5049649;28;19921;-76
2023/01/18 07:05:07;;;;;;;;;;;;;;;1.24;100.00;97318.88;5039190;28;19924;-79
2023/01/18 07:07:32;;;;;;;;;;;;;;;1.22;100.00;97315.59;5051106;28;19928;-79
2023/01/18 07:09:58;;;;;;;;;;;;;;;1.16;100.00;97310.97;5043267;28;19928;-78
2023/01/18 07:12:23;;;;;;;;;;;;;;;1.16;100.00;97310.97;5036569;28;19925;-76
2023/01/18 07:14:49;;;;;;;;;;;;;;;1.14;100.00;97310.28;5051983;28;19920;-80
2023/01/18 07:17:14;;;;;;;;;;;;;;;1.04;100.00;97322.47;5049931;28;19917;-78
2023/01/18 07:19:39;;;;;;;;;;;;;;;1.04;100.00;97330.25;5029936;28;19948;-78
2023/01/18 07:22:05;;;;;;;;;;;;;;;1.09;100.00;97338.44;5051916;28;19924;-78
2023/01/18 07:24:30;;;;;;;;;;;;;;;0.94;100.00;97332.03;5054527;28;19928;-78
2023/01/18 07:26:58;;;;;;;;;;;;;;;0.72;100.00;97333.09;5030238;28;19927;-78
2023/01/18 07:29:24;;;;;;;;;;;;;;;0.56;100.00;97337.19;5054888;28;19995;-80
2023/01/18 07:31:49;;;;;;;;;;;;;;;0.44;100.00;97338.25;5054703;28;19917;-78
2023/01/18 07:34:14;;;;;;;;;;;;;;;0.53;100.00;97347.84;5056013;28;19913;-79
2023/01/18 07:36:40;;;;;;;;;;;;;;;0.49;100.00;97354.25;5058192;28;19917;-79
2023/01/18 07:39:09;;;;;;;;;;;;;;;0.50;100.00;97354.13;5058936;28;19920;-77
2023/01/18 07:41:35;;;;;;;;;;;;;;;0.61;100.00;97377.34;5047937;28;20008;-79
2023/01/18 07:44:01;;;;;;;;;;;;;;;0.45;100.00;97378.81;5033388;28;20380;-79
2023/01/18 07:46:27;;;;;;;;;;;;;;;0.55;100.00;97383.06;5050870;28;19995;-79
2023/01/18 07:48:52;;;;;;;;;;;;;;;0.60;100.00;97396.47;5053939;28;19917;-78
2023/01/18 07:51:18;;;;;;;;;;;;;;;0.70;100.00;97396.50;5050508;28;19920;-79
2023/01/18 07:53:44;;;;;;;;;;;;;;;0.78;100.00;97394.03;5053342;28;20414;-78
2023/01/18 07:56:11;;;;;;;;;;;;;;;0.82;100.00;97401.41;5051568;28;19921;-78
2023/01/18 07:58:36;;;;;;;;;;;;;;;0.86;100.00;97406.38;5057073;28;19920;-79
2023/01/18 08:01:08;;;;;;;;;;;;;;;0.89;100.00;97411.28;5049758;28;19923;-79
2023/01/18 08:03:34;;;;;;;;;;;;;;;0.90;100.00;97418.09;5024534;28;20322;-78
2023/01/18 08:06:00;;;;;;;;;;;;;;;0.92;100.00;97427.41;5053329;28;19917;-79
2023/01/18 08:08:27;;;;;;;;;;;;;;;0.95;100.00;97416.75;5049116;28;19942;-78
2023/01/18 08:10:53;;;;;;;;;;;;;;;1.01;100.00;97426.59;5047973;28;19924;-77
2023/01/18 08:13:19;;;;;;;;;;;;;;;1.01;100.00;97436.16;5050755;28;20381;-78
2023/01/18 08:15:44;;;;;;;;;;;;;;;0.99;100.00;97444.13;5049336;28;20003;-78
2023/01/18 08:18:11;;;;;;;;;;;;;;;1.01;100.00;97449.97;5052196;28;19947;-78
2023/01/18 08:20:37;;;;;;;;;;;;;;;1.03;100.00;97455.88;5050910;28;20399;-77
2023/01/18 08:23:02;;;;;;;;;;;;;;;1.05;100.00;97451.38;5033808;28;19913;-79
2023/01/18 08:25:29;;;;;;;;;;;;;;;1.07;100.00;97457.22;5053350;28;19999;-79
2023/01/18 08:27:58;;;;;;;;;;;;;;;1.11;100.00;97463.81;5043942;28;20324;-79
2023/01/18 08:30:26;;;;;;;;;;;;;;;1.15;100.00;97465.19;5045191;28;19923;-78
2023/01/18 08:32:53;;;;;;;;;;;;;;;1.19;100.00;97470.91;5049408;28;19917;-78
2023/01/18 08:35:19;;;;;;;;;;;;;;;1.20;100.00;97478.59;5050444;28;19988;-81
2023/01/18 08:37:44;;;;;;;;;;;;;;;1.20;100.00;97488.97;5052212;28;20007;-79
2023/01/18 08:40:10;;;;;;;;;;;;;;;1.26;100.00;97498.00;5035638;28;19970;-79
2023/01/18 08:42:36;;;;;;;;;;;;;;;1.27;100.00;97493.63;5049833;28;19963;-78
2023/01/18 08:45:01;;;;;;;;;;;;;;;1.29;100.00;97489.94;5034846;28;19943;-78
2023/01/18 08:47:27;;;;;;;;;;;;;;;1.32;100.00;97497.47;5048195;28;20031;-79
2023/01/18 08:49:52;;;;;;;;;;;;;;;1.35;100.00;97498.97;5031338;28;19916;-80
2023/01/18 08:52:18;;;;;;;;;;;;;;;1.30;100.00;97495.97;5052989;28;19927;-80
2023/01/18 08:54:43;;;;;;;;;;;;;;;1.28;100.00;97500.47;5031792;28;19951;-76
2023/01/18 08:57:09;;;;;;;;;;;;;;;1.29;100.00;97510.75;5048804;28;19924;-78
2023/01/18 08:59:35;;;;;;;;;;;;;;;1.29;100.00;97517.72;5053905;28;19917;-78
2023/01/18 09:02:00;;;;;;;;;;;;;;;1.32;100.00;97512.22;5042993;28;20297;-76
2023/01/18 09:04:28;;;;;;;;;;;;;;;1.35;100.00;97511.97;5050972;28;19943;-76
2023/01/18 09:06:53;;;;;;;;;;;;;;;1.38;100.00;97516.88;5044993;28;20280;-76
2023/01/18 09:09:18;;;;;;;;;;;;;;;1.39;100.00;97510.75;5044183;28;19917;-75
2023/01/18 09:11:44;;;;;;;;;;;;;;;1.40;100.00;97515.81;5051733;28;20102;-75
2023/01/18 09:14:09;;;;;;;;;;;;;;;1.42;100.00;97513.06;5047969;28;19999;-75
2023/01/18 09:16:35;;;;;;;;;;;;;;;1.43;100.00;97514.69;5051176;28;19924;-76
2023/01/18 09:19:05;;;;;;;;;;;;;;;1.43;100.00;97519.91;5054347;28;19921;-76
2023/01/18 09:21:30;;;;;;;;;;;;;;;1.40;100.00;97525.38;5031146;28;20254;-76
2023/01/18 09:23:56;;;;;;;;;;;;;;;1.40;100.00;97530.59;5051686;28;19929;-75
2023/01/18 09:26:21;;;;;;;;;;;;;;;1.45;100.00;97543.97;5056929;28;19966;-76
2023/01/18 09:28:49;;;;;;;;;;;;;;;1.46;100.00;97535.25;5036383;28;19917;-76
2023/01/18 09:31:15;;;;;;;;;;;;;;;1.52;100.00;97534.69;5055682;28;19920;-76
2023/01/18 09:33:41;;;;;;;;;;;;;;;1.58;100.00;97539.34;5056982;28;19928;-76
2023/01/18 09:36:08;;;;;;;;;;;;;;;1.61;100.00;97552.88;5051495;28;20004;-76
2023/01/18 09:38:35;;;;;;;;;;;;;;;1.67;100.00;97541.13;5061241;28;19923;-73
2023/01/18 09:41:01;;;;;;;;;;;;;;;1.73;100.00;97542.34;5039409;28;20359;-77
2023/01/18 09:43:30;;;;;;;;;;;;;;;1.78;100.00;97550.56;5039523;28;19978;-75
2023/01/18 09:45:56;;;;;;;;;;;;;;;1.79;100.00;97553.03;5043569;28;20255;-76
2023/01/18 09:48:34;;;;;;;;;;;;;;;1.84;100.00;97560.41;5046731;28;19921;-74
2023/01/18 09:51:03;;;;;;;;;;;;;;;1.89;100.00;97564.25;5060327;28;19966;-76
2023/01/18 09:53:31;;;;;;;;;;;;;;;1.96;100.00;97549.75;5062349;28;19924;-76
2023/01/18 09:55:57;;;;;;;;;;;;;;;1.99;100.00;97565.09;5029603;28;19928;-75
2023/01/18 09:58:38;;;;;;;;;;;;;;;2.06;100.00;97560.97;5060145;28;19917;-76
2023/01/18 10:01:12;;;;;;;;;;;;;;;2.12;100.00;97558.78;5049353;28;19917;-79
2023/01/18 10:03:47;;;;;;;;;;;;;;;2.13;100.00;97560.41;5039978;28;19917;-78
2023/01/18 10:06:27;;;;;;;;;;;;;;;2.11;100.00;97562.34;5037940;28;20368;-78
2023/01/18 10:09:03;;;;;;;;;;;;;;;2.17;100.00;97564.41;5042688;28;19917;-78
2023/01/18 10:11:30;;;;;;;;;;;;;;;2.19;100.00;97571.09;5036757;28;19940;-79
2023/01/18 10:13:58;;;;;;;;;;;;;;;2.19;100.00;97583.28;5048494;28;20325;-79
2023/01/18 10:16:25;;;;;;;;;;;;;;;2.14;100.00;97575.06;5052612;28;20287;-79
2023/01/18 10:18:52;;;;;;;;;;;;;;;2.17;100.00;97573.03;5053465;28;19920;-78
2023/01/18 10:21:33;;;;;;;;;;;;;;;2.15;100.00;97574.94;5047595;28;19998;-78
2023/01/18 10:23:58;;;;;;;;;;;;;;;2.18;100.00;97574.63;5049091;28;19964;-78
2023/01/18 10:26:27;;;;;;;;;;;;;;;2.23;100.00;97579.44;5046550;28;19916;-78
2023/01/18 10:29:01;;;;;;;;;;;;;;;2.30;100.00;97575.31;5050453;28;19924;-78
2023/01/18 10:31:46;;;;;;;;;;;;;;;2.25;100.00;97580.13;5057161;28;20408;-77
2023/01/18 10:34:24;;;;;;;;;;;;;;;1.98;100.00;97584.25;5048302;28;20259;-77
2023/01/18 10:37:05;;;;;;;;;;;;;;;1.90;100.00;97586.72;5051985;28;19963;-78
2023/01/18 10:39:31;;;;;;;;;;;;;;;2.02;100.00;97579.59;5039096;28;20391;-79
2023/01/18 10:41:59;;;;;;;;;;;;;;;1.99;100.00;97585.09;5049052;28;19921;-79
2023/01/18 10:44:24;;;;;;;;;;;;;;;2.03;100.00;97584.66;5049629;28;20281;-78
2023/01/18 10:46:54;;;;;;;;;;;;;;;2.02;100.00;97584.78;5028815;28;19920;-79
2023/01/18 10:49:51;;;;;;;;;;;;;;;1.98;100.00;97586.03;5051208;28;19923;-77
2023/01/18 10:52:27;;;;;;;;;;;;;;;1.98;100.00;97584.25;5006757;28;19952;-79
2023/01/18 10:54:56;;;;;;;;;;;;;;;2.08;100.00;97588.63;5048878;28;20332;-78
2023/01/18 10:57:43;;;;;;;;;;;;;;;1.91;100.00;97583.16;5053764;28;19954;-78
2023/01/18 11:00:22;;;;;;;;;;;;;;;1.57;100.00;97585.31;5053991;28;19927;-79
2023/01/18 11:02:49;;;;;;;;;;;;;;;1.64;100.00;97585.59;5050668;28;19917;-78
2023/01/18 11:05:43;;;;;;;;;;;;;;;1.77;100.00;97575.75;5055693;28;20729;-79
2023/01/18 11:08:23;;;;;;;;;;;;;;;1.86;100.00;97574.94;5043669;28;19994;-79
2023/01/18 11:10:57;;;;;;;;;;;;;;;1.94;100.00;97572.50;5048491;28;19929;-79
2023/01/18 11:13:25;;;;;;;;;;;;;;;2.02;100.00;97574.38;5051856;28;19924;-78
2023/01/18 11:16:11;;;;;;;;;;;;;;;2.06;100.00;97586.19;5045733;28;20282;-77
2023/01/18 11:18:37;;;;;;;;;;;;;;;2.13;100.00;97586.41;5052591;28;20296;-80
2023/01/18 11:21:07;;;;;;;;;;;;;;;2.20;100.00;97582.31;5050825;28;19917;-79
2023/01/18 11:23:36;;;;;;;;;;;;;;;2.23;100.00;97582.06;5049719;28;20257;-79
2023/01/18 11:26:11;;;;;;;;;;;;;;;2.25;100.00;97591.34;5037471;28;19923;-79
2023/01/18 11:28:38;;;;;;;;;;;;;;;2.33;100.00;97590.66;5046133;28;19916;-79
2023/01/18 11:31:14;;;;;;;;;;;;;;;2.33;100.00;97588.88;5040410;28;19921;-78
2023/01/18 11:33:50;;;;;;;;;;;;;;;2.27;100.00;97586.00;5040686;28;19960;-79
2023/01/18 11:36:18;;;;;;;;;;;;;;;2.30;100.00;97585.72;5046115;28;19920;-78
2023/01/18 11:38:43;;;;;;;;;;;;;;;2.31;100.00;97587.38;5043479;28;20390;-79
2023/01/18 11:41:14;;;;;;;;;;;;;;;2.26;100.00;97586.97;5048226;28;19961;-79
2023/01/18 11:43:44;;;;;;;;;;;;;;;2.22;100.00;97580.41;5045410;28;20331;-79
2023/01/18 11:46:21;;;;;;;;;;;;;;;2.23;100.00;97576.84;5051209;28;20323;-80
2023/01/18 11:48:50;;;;;;;;;;;;;;;2.24;100.00;97579.28;5041604;28;19917;-79
2023/01/18 11:51:35;;;;;;;;;;;;;;;2.25;100.00;97575.72;5050332;28;20782;-79
2023/01/18 11:54:00;;;;;;;;;;;;;;;2.22;100.00;97570.00;5048572;28;20392;-79
2023/01/18 11:56:31;;;;;;;;;;;;;;;2.13;100.00;97576.00;5045179;28;19953;-79
2023/01/18 11:58:57;;;;;;;;;;;;;;;2.21;100.00;97576.16;5051086;28;20011;-79
2023/01/18 12:01:22;;;;;;;;;;;;;;;2.30;100.00;97577.91;5044409;28;19967;-80
2023/01/18 12:03:53;;;;;;;;;;;;;;;2.33;100.00;97569.84;5032883;28;19916;-79
2023/01/18 12:06:37;;;;;;;;;;;;;;;2.37;100.00;97586.81;5050419;28;19921;-79
2023/01/18 12:09:29;;;;;;;;;;;;;;;2.43;100.00;97587.06;5039793;28;19916;-80
2023/01/18 12:12:01;;;;;;;;;;;;;;;2.47;100.00;97587.63;5009504;28;19924;-78
2023/01/18 12:14:26;;;;;;;;;;;;;;;2.50;100.00;97583.91;5055196;28;19985;-78
2023/01/18 12:17:01;;;;;;;;;;;;;;;2.50;100.00;97592.56;5058968;28;19961;-79
2023/01/18 12:19:26;;;;;;;;;;;;;;;2.50;100.00;97589.94;5058139;28;19982;-80
2023/01/18 12:21:54;;;;;;;;;;;;;;;2.54;100.00;97590.47;5057380;28;19917;-79
2023/01/18 12:24:29;;;;;;;;;;;;;;;2.53;100.00;97600.09;5059244;28;19920;-80
2023/01/18 12:26:59;;;;;;;;;;;;;;;2.57;100.00;97596.25;5060776;28;19995;-80
2023/01/18 12:29:57;;;;;;;;;;;;;;;2.59;100.00;97599.53;5063019;28;19916;-80
2023/01/18 12:32:32;;;;;;;;;;;;;;;2.53;100.00;97602.69;5026629;28;20007;-79
2023/01/18 12:34:59;;;;;;;;;;;;;;;2.49;100.00;97598.72;5043559;28;20007;-80
2023/01/18 12:37:39;;;;;;;;;;;;;;;2.51;100.00;97595.97;5063688;28;19923;-80
2023/01/18 12:40:17;;;;;;;;;;;;;;;2.50;100.00;97600.38;5053742;28;19932;-81
2023/01/18 12:42:51;;;;;;;;;;;;;;;2.53;100.00;97607.91;5057156;28;20363;-79
2023/01/18 12:45:19;;;;;;;;;;;;;;;2.56;100.00;97599.81;5061029;28;19921;-80
2023/01/18 12:47:58;;;;;;;;;;;;;;;2.58;100.00;97605.69;5057337;28;19913;-80
2023/01/18 12:50:26;;;;;;;;;;;;;;;2.59;100.00;97614.34;5056896;28;20391;-80
2023/01/18 12:52:53;;;;;;;;;;;;;;;2.55;100.00;97613.78;5062384;28;19921;-80
2023/01/18 12:55:21;;;;;;;;;;;;;;;2.52;100.00;97608.03;5043987;28;19928;-79
2023/01/18 12:57:49;;;;;;;;;;;;;;;2.50;100.00;97615.97;5043430;28;19916;-80
2023/01/18 13:00:17;;;;;;;;;;;;;;;2.49;100.00;97619.53;5034822;28;19920;-79
2023/01/18 13:02:46;;;;;;;;;;;;;;;2.51;100.00;97616.81;5048602;28;20323;-77
2023/01/18 13:05:35;;;;;;;;;;;;;;;2.42;100.00;97613.25;5050758;28;19923;-77
2023/01/18 13:08:03;;;;;;;;;;;;;;;2.42;100.00;97613.25;5053677;28;19927;-78
2023/01/18 13:10:28;;;;;;;;;;;;;;;2.45;100.00;97612.97;5049644;28;19931;-79
2023/01/18 13:12:55;;;;;;;;;;;;;;;2.49;100.00;97603.91;5036131;28;19917;-79
2023/01/18 13:15:29;;;;;;;;;;;;;;;2.53;100.00;97602.69;5046920;28;20003;-79
2023/01/18 13:17:55;;;;;;;;;;;;;;;2.53;100.00;97605.31;5047378;28;20008;-78
2023/01/18 13:20:24;;;;;;;;;;;;;;;2.53;100.00;97607.09;5049483;28;20050;-79
2023/01/18 13:22:52;;;;;;;;;;;;;;;2.55;100.00;97607.75;5047850;28;19965;-81
2023/01/18 13:25:18;;;;;;;;;;;;;;;2.58;100.00;97612.69;5046579;28;19916;-81
2023/01/18 13:27:56;;;;;;;;;;;;;;;2.60;100.00;97614.16;5052279;28;19917;-80